Latest Weather Observations for Lucas Heights

IDN60801

Issued at 2:33 pm EST Thursday 30 June 2016 (issued every 30 minutes, with the page automatically refreshed every 10 minutes)

About weather observations | Map of weather stations | Latest weather observations for NSW | Other Formats
Station Details ID: 066023 Name: LUCAS HEIGHTS AWS Lat: -34.05 Lon: 150.98 Height: 140.0 m
Data from the previous 72 hours. | See also: Recent months for locations in New South Wales
Date/Time
EST
Temp
°C
App
Temp
°C
Dew
Point
°C
Rel
Hum
%
Delta-T
°C
Wind Press
QNH
hPa
Press
MSL
hPa
Rain since
9am
mm
Dir  Spd
km/h
Gust
km/h
Spd
kts
Gust
kts
30/02:15pm 12.0 8.4 5.2 63 3.2 NW 13 17 7 9 1015.4 - 0.0
30/02:00pm 12.2 9.0 4.9 61 3.4 NW 11 17 6 9 1015.6 - 0.0
30/01:45pm 12.3 8.2 4.5 59 3.6 NW 15 22 8 12 1015.7 - 0.0
30/01:30pm 12.6 8.5 4.4 57 3.8 NW 15 22 8 12 1016.0 - 0.0
30/01:15pm 12.8 8.4 4.8 58 3.7 NNW 17 24 9 13 1016.3 - 0.0
30/01:00pm 12.3 8.3 4.8 60 3.5 NNW 15 24 8 13 1016.8 - 0.0
30/12:45pm 12.1 8.4 4.3 59 3.6 NW 13 22 7 12 1017.2 - 0.0
30/12:30pm 11.9 7.8 4.5 60 3.4 NW 15 22 8 12 1017.5 - 0.0
30/12:15pm 12.1 8.0 4.6 60 3.4 NNW 15 24 8 13 1017.8 - 0.0
30/12:00pm 11.9 8.7 5.3 64 3.1 NNW 11 20 6 11 1018.2 - 0.0
30/11:45am 11.5 8.3 5.2 65 2.9 NNW 11 19 6 10 1018.6 - 0.0
30/11:30am 11.0 7.8 5.3 68 2.6 NW 11 19 6 10 1018.9 - 0.0
30/11:15am 10.4 7.2 5.1 69 2.4 NW 11 19 6 10 1019.2 - 0.0
30/11:00am 10.1 6.9 5.2 71 2.2 NW 11 17 6 9 1019.5 - 0.0
30/10:45am 9.8 6.4 5.7 75 1.9 NW 13 19 7 10 1019.8 - 0.0
30/10:30am 9.4 6.4 6.2 80 1.5 NW 11 17 6 9 1020.0 - 0.0
30/10:15am 9.1 6.6 6.7 85 1.1 NW 9 15 5 8 1020.1 - 0.0
30/10:00am 8.6 6.6 6.9 89 0.8 NW 7 11 4 6 1020.3 - 0.0
30/09:45am 8.3 6.3 7.2 93 0.5 NNW 7 11 4 6 1020.4 - 0.0
30/09:30am 7.8 6.0 7.0 95 0.4 NW 6 9 3 5 1020.6 - 0.0
30/09:15am 7.2 5.7 6.7 97 0.2 NW 4 7 2 4 1020.7 - 0.0
30/09:00am 6.7 5.1 6.5 99 0.1 WNW 4 7 2 4 1020.7 - 0.0
30/08:45am 6.4 4.4 6.3 99 0.0 WNW 6 11 3 6 1020.8 - 0.0
30/08:30am 5.7 3.4 5.6 99 0.0 WNW 7 11 4 6 1020.8 - 0.0
30/08:15am 5.1 2.6 5.0 99 0.0 WNW 7 11 4 6 1020.9 - 0.0
30/08:00am 4.2 1.2 4.1 99 0.0 NW 9 11 5 6 1020.9 - 0.0
30/07:45am 2.8 -0.1 2.7 99 0.0 NW 7 11 4 6 1020.7 - 0.0
30/07:30am 2.5 -0.4 2.4 99 0.0 NNW 7 11 4 6 1020.6 - 0.0
30/07:15am 2.6 -1.1 2.5 99 0.0 NW 11 13 6 7 1020.8 - 0.0
30/07:00am 2.3 -1.0 2.2 99 0.0 NW 9 13 5 7 1020.9 - 0.0
30/06:45am 2.7 -0.6 2.6 99 0.0 WNW 9 13 5 7 1020.9 - 0.0
30/06:30am 3.0 -0.6 2.9 99 0.0 WNW 11 17 6 9 1020.9 - 0.0
30/06:15am 3.7 0.6 3.6 99 0.0 W 9 17 5 9 1021.1 - 0.0
30/06:00am 3.6 0.5 3.5 99 0.0 WNW 9 11 5 6 1021.1 - 0.0
30/05:45am 3.8 0.7 3.6 99 0.1 WNW 9 11 5 6 1021.1 - 0.0
30/05:30am 5.0 1.8 4.9 99 0.0 WNW 11 11 6 6 1021.1 - 0.0
30/05:15am 5.2 2.0 5.1 99 0.0 WNW 11 13 6 7 1021.3 - 0.0
30/05:00am 4.4 1.1 4.3 99 0.0 WNW 11 13 6 7 1021.4 - 0.0
30/04:45am 3.5 0.0 3.4 99 0.0 NW 11 13 6 7 1021.5 - 0.0
30/04:30am 3.8 0.3 3.7 99 0.0 NW 11 13 6 7 1021.5 - 0.0
30/04:15am 3.8 -0.4 3.7 99 0.0 NW 15 17 8 9 1021.7 - 0.0
30/04:00am 3.9 0.5 3.8 99 0.0 NW 11 13 6 7 1021.8 - 0.0
30/03:45am 3.8 0.3 3.7 99 0.0 NW 11 13 6 7 1021.9 - 0.0
30/03:30am 3.5 0.0 3.4 99 0.0 NW 11 13 6 7 1022.0 - 0.0
30/03:15am 3.6 0.5 3.5 99 0.0 NW 9 13 5 7 1022.2 - 0.0
30/03:00am 3.8 0.3 3.7 99 0.0 NW 11 13 6 7 1022.6 - 0.0
30/02:45am 3.9 0.5 3.8 99 0.0 NW 11 13 6 7 1022.8 - 0.0
30/02:30am 4.3 0.9 4.2 99 0.0 WNW 11 13 6 7 1023.1 - 0.0
30/02:15am 4.4 0.7 4.3 99 0.0 NW 13 17 7 9 1023.3 - 0.0
30/02:00am 4.0 0.6 4.0 100 0.0 NW 11 13 6 7 1023.3 - 0.0
30/01:45am 4.1 0.7 4.0 99 0.0 NW 11 13 6 7 1023.4 - 0.0
30/01:30am 4.2 0.8 4.1 99 0.0 NNW 11 13 6 7 1023.6 - 0.0
30/01:15am 4.2 0.8 4.1 99 0.0 NNW 11 13 6 7 1023.6 - 0.0
30/01:00am 4.3 0.9 4.2 99 0.0 NNW 11 13 6 7 1023.7 - 0.0
30/12:45am 4.3 0.9 4.1 99 0.1 NW 11 13 6 7 1023.8 - 0.0
30/12:30am 4.4 1.1 4.3 99 0.0 NW 11 13 6 7 1024.0 - 0.0
30/12:15am 4.4 1.0 4.2 99 0.1 NW 11 13 6 7 1024.1 - 0.0
30/12:00am 4.7 1.0 4.5 99 0.1 NW 13 15 7 8 1024.4 - 0.0
 
Date/Time
EST
Temp
°C
App
Temp
°C
Dew
Point
°C
Rel
Hum
%
Delta-T
°C
Wind Press
QNH
hPa
Press
MSL
hPa
Rain since
9am
mm
Dir  Spd
km/h
Gust
km/h
Spd
kts
Gust
kts
29/11:45pm 4.8 1.1 4.6 99 0.1 NW 13 17 7 9 1024.7 - 0.0
29/11:30pm 4.9 1.6 4.7 99 0.1 NW 11 13 6 7 1024.9 - 0.0
29/11:15pm 5.0 1.7 4.7 98 0.1 NNW 11 13 6 7 1025.0 - 0.0
29/11:00pm 5.0 2.1 4.7 98 0.1 NNW 9 11 5 6 1025.1 - 0.0
29/10:45pm 5.1 2.6 4.7 97 0.2 NNW 7 9 4 5 1025.3 - 0.0
29/10:30pm 5.3 2.8 4.9 97 0.2 NW 7 9 4 5 1025.3 - 0.0
29/10:15pm 5.5 3.0 5.0 97 0.2 NW 7 9 4 5 1025.4 - 0.0
29/10:00pm 5.8 3.4 5.2 96 0.3 NW 7 7 4 4 1025.5 - 0.0
29/09:45pm 6.0 3.8 5.3 95 0.3 NNW 6 7 3 4 1025.6 - 0.0
29/09:30pm 6.2 4.0 5.4 95 0.4 N 6 7 3 4 1025.7 - 0.0
29/09:15pm 6.4 4.2 5.4 93 0.4 - 6 7 3 4 1025.7 - 0.0
29/09:00pm 6.6 4.8 5.5 93 0.5 N 4 7 2 4 1025.7 - 0.0
29/08:45pm 6.9 4.8 5.7 92 0.5 NNE 6 9 3 5 1025.8 - 0.0
29/08:30pm 7.2 4.5 5.8 91 0.6 NNE 9 11 5 6 1025.9 - 0.0
29/08:15pm 7.5 5.2 5.9 90 0.7 NE 7 11 4 6 1025.9 - 0.0
29/08:00pm 8.0 5.4 6.2 88 0.8 NE 9 11 5 6 1026.0 - 0.0
29/07:45pm 8.3 5.7 6.3 87 0.9 ENE 9 11 5 6 1026.0 - 0.0
29/07:30pm 8.5 5.9 6.3 86 1.0 ENE 9 11 5 6 1025.9 - 0.0
29/07:15pm 8.7 6.1 6.2 84 1.2 E 9 11 5 6 1025.9 - 0.0
29/07:00pm 9.1 6.5 6.1 81 1.4 E 9 11 5 6 1025.9 - 0.0
29/06:45pm 9.5 6.9 6.0 79 1.6 E 9 11 5 6 1026.0 - 0.0
29/06:30pm 10.1 7.8 5.7 74 2.0 E 7 9 4 5 1025.9 - 0.0
29/06:15pm 10.9 8.7 6.1 72 2.3 E 7 7 4 4 1025.9 - 0.0
29/06:00pm 11.4 9.4 6.2 70 2.5 ESE 6 7 3 4 1025.7 - 0.0
29/05:45pm 11.9 9.7 6.4 69 2.6 ESE 7 7 4 4 1025.6 - 0.0
29/05:30pm 12.5 10.5 6.4 66 2.9 E 6 7 3 4 1025.6 - 0.0
29/05:15pm 13.1 11.0 6.5 64 3.2 E 7 9 4 5 1025.6 - 0.0
29/05:00pm 13.3 11.2 5.8 60 3.6 ESE 6 11 3 6 1025.5 - 0.0
29/04:45pm 14.6 12.8 5.4 54 4.4 N 4 7 2 4 1025.5 - 0.0
29/04:30pm 15.3 12.9 5.3 51 4.8 N 7 7 4 4 1025.5 - 0.0
29/04:15pm 15.6 13.2 5.3 50 4.9 NNE 7 9 4 5 1025.5 - 0.0
29/04:00pm 16.0 13.7 4.9 47 5.3 N 6 7 3 4 1025.5 - 0.0
29/03:45pm 16.2 13.9 4.7 46 5.5 NNE 6 7 3 4 1025.5 - 0.0
29/03:30pm 16.4 14.1 4.8 46 5.5 N 6 9 3 5 1025.5 - 0.0
29/03:15pm 16.6 14.7 5.1 46 5.5 N 4 11 2 6 1025.4 - 0.0
29/03:00pm 16.5 14.2 5.0 46 5.5 NNE 6 7 3 4 1025.3 - 0.0
29/02:45pm 16.8 14.9 4.7 44 5.8 N 4 11 2 6 1025.3 - 0.0
29/02:30pm 16.6 14.3 5.0 46 5.6 NNW 6 13 3 7 1025.3 - 0.0
29/02:15pm 16.4 14.2 5.1 47 5.4 NNW 6 13 3 7 1025.3 - 0.0
29/02:00pm 16.5 14.3 5.3 47 5.4 NW 6 13 3 7 1025.4 - 0.0
29/01:45pm 16.7 14.5 5.5 47 5.4 W 6 9 3 5 1025.6 - 0.0
29/01:30pm 16.4 14.3 5.7 49 5.2 NNW 6 11 3 6 1025.8 - 0.0
29/01:15pm 16.2 14.5 5.8 50 5.1 NNW 4 9 2 5 1025.9 - 0.0
29/01:00pm 16.0 13.7 5.9 51 4.9 N 7 13 4 7 1026.0 - 0.0
29/12:45pm 15.8 13.8 6.1 52 4.7 NNW 6 11 3 6 1026.3 - 0.0
29/12:30pm 15.6 13.4 6.2 53 4.6 NNW 7 11 4 6 1026.5 - 0.0
29/12:15pm 15.4 13.2 6.1 54 4.5 NNW 7 11 4 6 1026.6 - 0.0
29/12:00pm 15.3 13.1 6.0 54 4.5 NW 7 11 4 6 1026.8 - 0.0
29/11:45am 15.0 12.8 6.3 56 4.2 NW 7 11 4 6 1027.0 - 0.0
29/11:30am 14.8 12.8 6.4 57 4.1 NW 6 11 3 6 1027.2 - 0.0
29/11:15am 13.9 11.9 6.3 60 3.7 NW 6 9 3 5 1027.4 - 0.0
29/11:00am 13.2 10.9 5.9 61 3.5 WNW 7 11 4 6 1027.6 - 0.0
29/10:45am 13.0 10.8 6.1 63 3.3 W 7 11 4 6 1027.9 - 0.0
29/10:30am 12.2 9.6 5.9 65 3.0 WNW 9 13 5 7 1028.1 - 0.0
29/10:15am 11.4 8.3 5.5 67 2.7 WNW 11 13 6 7 1028.2 - 0.0
29/10:00am 10.9 8.1 5.3 68 2.6 WNW 9 13 5 7 1028.3 - 0.0
29/09:45am 10.8 8.4 5.2 68 2.6 WNW 7 13 4 7 1028.3 - 0.0
29/09:30am 10.6 8.4 5.3 70 2.4 W 6 11 3 6 1028.2 - 0.0
29/09:15am 10.0 7.2 5.2 72 2.2 W 9 13 5 7 1028.0 - 0.0
29/09:00am 9.3 6.5 5.0 74 1.9 W 9 13 5 7 1027.9 - 0.0
29/08:45am 8.3 4.6 4.6 77 1.6 WSW 13 19 7 10 1027.8 - 0.0
29/08:30am 7.5 3.0 4.1 79 1.5 W 17 19 9 10 1027.8 - 0.0
29/08:15am 7.2 3.1 4.1 81 1.3 W 15 19 8 10 1027.8 - 0.0
29/08:00am 6.7 2.9 4.0 83 1.2 WSW 13 15 7 8 1027.7 - 0.0
29/07:45am 5.9 2.0 3.6 85 1.0 WSW 13 15 7 8 1027.6 - 0.0
29/07:30am 5.3 0.6 3.0 85 1.0 SW 17 19 9 10 1027.5 - 0.0
29/07:15am 5.3 0.0 2.9 84 1.0 WSW 20 22 11 12 1027.4 - 0.0
29/07:00am 5.5 0.2 2.9 83 1.1 WSW 20 22 11 12 1027.4 - 0.0
29/06:45am 5.9 0.8 3.1 82 1.2 WSW 19 22 10 12 1027.3 - 0.0
29/06:30am 5.9 0.8 3.3 83 1.1 SW 19 24 10 13 1027.1 - 0.0
29/06:15am 5.7 1.0 3.0 83 1.1 SW 17 20 9 11 1027.0 - 0.0
29/06:00am 6.0 0.9 3.0 81 1.3 WSW 19 22 10 12 1027.0 - 0.0
29/05:45am 6.2 1.1 3.1 80 1.3 WSW 19 20 10 11 1026.9 - 0.0
29/05:30am 6.3 1.2 3.2 80 1.3 WSW 19 22 10 12 1026.8 - 0.0
29/05:15am 6.4 1.3 3.2 80 1.3 WSW 19 22 10 12 1026.6 - 0.0
29/05:00am 6.6 1.5 3.2 79 1.4 WSW 19 24 10 13 1026.6 - 0.0
29/04:45am 6.7 1.6 3.3 79 1.4 WSW 19 24 10 13 1026.5 - 0.0
29/04:30am 6.8 1.7 3.3 78 1.5 WSW 19 24 10 13 1026.5 - 0.0
29/04:15am 6.9 1.8 3.2 77 1.6 WSW 19 22 10 12 1026.4 - 0.0
29/04:00am 7.1 2.0 3.2 76 1.7 WSW 19 28 10 15 1026.4 - 0.0
29/03:45am 7.1 1.8 3.2 76 1.7 WSW 20 30 11 16 1026.4 - 0.0
29/03:30am 7.2 2.5 3.1 75 1.7 SW 17 26 9 14 1026.5 - 0.0
29/03:15am 7.5 1.9 3.3 75 1.8 WSW 22 30 12 16 1026.5 - 0.0
29/03:00am 7.6 2.0 3.3 74 1.8 WSW 22 32 12 17 1026.5 - 0.0
29/02:45am 7.7 2.1 3.5 75 1.8 WSW 22 32 12 17 1026.5 - 0.0
29/02:30am 7.7 2.1 3.4 74 1.8 WSW 22 30 12 16 1026.5 - 0.0
29/02:15am 7.8 1.5 3.5 74 1.9 WSW 26 37 14 20 1026.5 - 0.0
29/02:00am 7.7 1.4 3.5 75 1.8 WSW 26 35 14 19 1026.5 - 0.0
29/01:45am 7.7 2.1 3.4 74 1.8 WSW 22 30 12 16 1026.6 - 0.0
29/01:30am 7.8 2.2 3.4 74 1.9 WSW 22 30 12 16 1026.7 - 0.0
29/01:15am 7.8 1.4 3.4 74 1.9 WSW 26 33 14 18 1026.8 - 0.0
29/01:00am 7.8 1.4 3.3 73 1.9 WSW 26 33 14 18 1026.8 - 0.0
29/12:45am 7.9 1.9 3.3 73 2.0 WSW 24 32 13 17 1026.8 - 0.0
29/12:30am 8.1 1.8 3.5 73 2.0 WSW 26 33 14 18 1026.9 - 0.0
29/12:15am 8.0 1.6 3.3 72 2.0 WSW 26 33 14 18 1026.9 - 0.0
29/12:00am 8.1 1.7 3.4 72 2.0 WSW 26 32 14 17 1027.2 - 0.0
 
Date/Time
EST
Temp
°C
App
Temp
°C
Dew
Point
°C
Rel
Hum
%
Delta-T
°C
Wind Press
QNH
hPa
Press
MSL
hPa
Rain since
9am
mm
Dir  Spd
km/h
Gust
km/h
Spd
kts
Gust
kts
28/11:45pm 8.2 1.5 3.5 72 2.0 WSW 28 35 15 19 1027.3 - 0.0
28/11:30pm 8.1 1.7 3.4 72 2.0 WSW 26 33 14 18 1027.2 - 0.0
28/11:15pm 8.1 1.7 3.3 72 2.1 WSW 26 32 14 17 1027.2 - 0.0
28/11:00pm 8.1 2.1 3.3 72 2.1 WSW 24 30 13 16 1027.3 - 0.0
28/10:45pm 8.0 1.6 3.2 72 2.1 WSW 26 32 14 17 1027.2 - 0.0
28/10:30pm 8.1 2.4 3.1 71 2.1 WSW 22 28 12 15 1027.2 - 0.0
28/10:15pm 8.3 3.0 3.2 70 2.2 WSW 20 28 11 15 1027.0 - 0.0
28/10:00pm 8.5 2.9 3.2 69 2.3 WSW 22 30 12 16 1027.0 - 0.0
28/09:45pm 8.7 3.1 3.2 68 2.4 WSW 22 30 12 16 1027.0 - 0.0
28/09:30pm 8.9 2.9 3.3 68 2.4 WSW 24 32 13 17 1027.0 - 0.0
28/09:15pm 9.0 3.4 3.3 67 2.5 WSW 22 30 12 16 1026.9 - 0.0
28/09:00pm 9.1 3.5 3.4 67 2.5 WSW 22 30 12 16 1026.9 - 0.0
28/08:45pm 9.1 3.1 3.5 68 2.4 WSW 24 33 13 18 1026.9 - 0.0
28/08:30pm 9.1 3.1 3.5 68 2.4 WSW 24 33 13 18 1026.8 - 0.0
28/08:15pm 9.1 3.5 3.6 68 2.4 WSW 22 30 12 16 1026.7 - 0.0
28/08:00pm 9.2 3.4 4.3 71 2.2 WSW 24 28 13 15 1026.7 - 0.0
28/07:45pm 8.3 3.3 3.8 73 2.0 WSW 19 22 10 12 1026.5 - 0.0
28/07:30pm 7.8 2.7 3.1 72 2.0 WSW 19 22 10 12 1026.3 - 0.0
28/07:15pm 8.4 3.7 3.2 70 2.2 WSW 17 20 9 11 1026.2 - 0.0
28/07:00pm 8.7 4.0 3.0 67 2.4 WSW 17 19 9 10 1026.0 - 0.0
28/06:45pm 10.1 5.8 3.3 62 3.0 WSW 15 17 8 9 1025.7 - 0.0
28/06:30pm 10.8 6.6 3.6 61 3.2 WSW 15 19 8 10 1025.5 - 0.0
28/06:15pm 11.1 6.5 3.7 60 3.3 W 17 20 9 11 1025.3 - 0.0
28/06:00pm 11.2 6.2 3.6 59 3.4 W 19 19 10 10 1025.1 - 0.0
28/05:45pm 11.9 7.3 3.8 57 3.6 W 17 19 9 10 1024.9 - 0.0
28/05:30pm 12.2 7.6 3.9 57 3.8 W 17 20 9 11 1024.8 - 0.0
28/05:15pm 12.2 8.7 3.3 54 4.0 W 11 17 6 9 1024.5 - 0.0
28/05:00pm 12.0 8.4 2.9 53 4.0 SW 11 13 6 7 1024.3 - 0.0
28/04:45pm 12.8 9.6 3.2 52 4.3 SSW 9 13 5 7 1024.2 - 0.0
28/04:30pm 14.1 11.0 3.6 49 4.8 SSW 9 13 5 7 1024.1 - 0.0
28/04:15pm 14.8 11.3 3.7 47 5.1 SW 11 15 6 8 1024.0 - 0.0
28/04:00pm 15.0 11.9 3.8 47 5.2 SW 9 15 5 8 1023.8 - 0.0
28/03:45pm 15.3 11.9 4.1 47 5.2 SSW 11 17 6 9 1023.6 - 0.0
28/03:30pm 15.5 12.1 4.1 46 5.3 SSW 11 17 6 9 1023.4 - 0.0
28/03:15pm 15.2 11.4 3.8 46 5.3 SW 13 22 7 12 1023.3 - 0.0
28/03:00pm 15.3 11.1 3.9 46 5.3 WSW 15 22 8 12 1023.0 - 0.0
28/02:45pm 15.1 10.5 3.6 46 5.3 WSW 17 24 9 13 1022.9 - 0.0
28/02:30pm 15.0 10.0 3.8 47 5.2 SW 19 28 10 15 1022.8 - 0.0
28/02:15pm 14.9 10.3 3.7 47 5.2 WSW 17 28 9 15 1022.8 - 0.0
28/02:00pm 15.0 10.8 3.9 47 5.1 SW 15 28 8 15 1022.8 - 0.0
28/01:45pm 14.8 10.6 3.9 48 5.0 SW 15 26 8 14 1022.7 - 0.0
28/01:30pm 14.6 9.6 3.7 48 5.0 SW 19 26 10 14 1022.7 - 0.0
28/01:15pm 14.7 9.7 3.7 47 5.1 SW 19 26 10 14 1022.7 - 0.0
28/01:00pm 14.6 10.4 4.0 49 4.9 SW 15 24 8 13 1022.8 - 0.0
28/12:45pm 14.4 9.8 3.8 49 4.9 SW 17 24 9 13 1023.0 - 0.0
28/12:30pm 14.3 9.7 3.7 49 4.9 WSW 17 30 9 16 1022.9 - 0.0
28/12:15pm 14.3 9.4 4.0 50 4.7 SW 19 32 10 17 1022.9 - 0.0
28/12:00pm 14.0 9.1 4.0 51 4.6 SW 19 30 10 16 1023.0 - 0.0
28/11:45am 13.7 8.2 4.1 52 4.4 SW 22 30 12 16 1023.1 - 0.0
28/11:30am 13.2 7.7 4.1 54 4.2 WSW 22 32 12 17 1023.2 - 0.0
28/11:15am 12.9 7.4 4.2 55 4.0 WSW 22 30 12 16 1023.5 - 0.0
28/11:00am 12.3 6.0 3.9 56 3.8 WSW 26 37 14 20 1023.6 - 0.0
28/10:45am 11.7 4.6 3.6 57 3.6 WSW 30 39 16 21 1023.6 - 0.0
28/10:30am 11.4 4.7 3.6 58 3.5 WSW 28 39 15 21 1023.7 - 0.0
28/10:15am 11.1 5.5 3.7 60 3.3 WSW 22 33 12 18 1023.7 - 0.0
28/10:00am 10.5 4.1 3.4 61 3.1 WSW 26 37 14 20 1023.7 - 0.0
28/09:45am 10.0 3.6 3.1 62 3.0 WSW 26 37 14 20 1023.6 - 0.0
28/09:30am 9.5 3.0 2.9 63 2.8 WSW 26 37 14 20 1023.3 - 0.0
28/09:15am 9.0 2.1 2.6 64 2.7 WSW 28 44 15 24 1023.2 - 0.0
28/09:00am 8.7 1.0 2.5 65 2.6 WSW 32 41 17 22 1023.1 - 1.6
28/08:45am 8.3 1.4 2.4 66 2.5 WSW 28 37 15 20 1022.9 - 1.6
28/08:30am 8.0 1.1 2.3 67 2.4 WSW 28 41 15 22 1022.6 - 1.6
28/08:15am 7.6 0.3 2.2 68 2.2 WSW 30 44 16 24 1022.4 - 1.6
28/08:00am 7.3 -0.6 2.2 70 2.1 WSW 33 44 18 24 1022.2 - 1.6
28/07:45am 6.8 -1.1 2.0 71 2.0 WSW 33 44 18 24 1021.9 - 1.6
28/07:30am 6.7 -1.1 1.9 71 2.0 WSW 32 44 17 24 1021.7 - 1.6
28/07:15am 6.8 -0.6 1.8 70 2.0 WSW 30 41 16 22 1021.4 - 1.6
28/07:00am 6.9 -0.5 1.9 70 2.1 WSW 30 44 16 24 1021.2 - 1.6
28/06:45am 7.0 -0.4 2.0 70 2.1 WSW 30 41 16 22 1020.9 - 1.6
28/06:30am 6.9 -0.5 2.0 71 2.0 WSW 30 44 16 24 1020.6 - 1.6
28/06:15am 6.9 -0.5 2.0 71 2.0 WSW 30 41 16 22 1020.5 - 1.6
28/06:00am 6.8 -0.2 2.0 71 2.0 WSW 28 39 15 21 1020.1 - 1.6
28/05:45am 6.9 -1.0 2.1 71 2.0 WSW 33 44 18 24 1019.7 - 1.6
28/05:30am 6.8 -0.9 2.2 72 1.9 WSW 32 41 17 22 1019.6 - 1.6
28/05:15am 6.8 -0.5 2.2 72 1.9 WSW 30 39 16 21 1019.5 - 1.6
28/05:00am 6.8 -0.5 2.2 72 1.9 WSW 30 39 16 21 1019.4 - 1.6
28/04:45am 7.0 -0.7 2.2 71 2.0 WSW 32 41 17 22 1019.2 - 1.6
28/04:30am 7.0 -0.3 2.3 72 2.0 WSW 30 41 16 22 1019.0 - 1.6
28/04:15am 7.0 0.1 2.3 72 2.0 WSW 28 37 15 20 1018.8 - 1.6
28/04:00am 7.1 -0.2 2.4 72 2.0 WSW 30 41 16 22 1018.5 - 1.6
28/03:45am 7.0 -0.3 2.4 72 1.9 WSW 30 41 16 22 1018.3 - 1.6
28/03:30am 7.0 0.1 2.4 72 1.9 WSW 28 37 15 20 1018.3 - 1.6
28/03:15am 7.0 0.1 2.4 72 1.9 WSW 28 37 15 20 1018.3 - 1.6
28/03:00am 7.1 -0.2 2.4 72 2.0 WSW 30 39 16 21 1018.2 - 1.6
28/02:45am 7.1 -0.2 2.4 72 2.0 WSW 30 41 16 22 1018.0 - 1.6
28/02:30am 7.0 -0.3 2.4 72 1.9 WSW 30 41 16 22 1017.8 - 1.6
28/02:15am 7.1 -0.2 2.4 72 2.0 WSW 30 39 16 21 1017.7 - 1.6
28/02:00am 7.1 -0.2 2.4 72 2.0 WSW 30 43 16 23 1017.5 - 1.6
28/01:45am 7.2 0.3 2.4 71 2.0 WSW 28 39 15 21 1017.6 - 1.6
28/01:30am 7.5 -0.2 2.4 70 2.1 WSW 32 43 17 23 1017.5 - 1.6
28/01:15am 7.6 -0.3 2.5 70 2.1 WSW 33 43 18 23 1017.5 - 1.6
28/01:00am 7.5 -0.1 2.6 71 2.1 WSW 32 46 17 25 1017.6 - 1.6
28/12:45am 7.5 -0.1 2.6 71 2.1 WSW 32 44 17 24 1017.6 - 1.6
28/12:30am 7.6 -0.2 2.7 71 2.1 WSW 33 50 18 27 1017.6 - 1.6
28/12:15am 7.6 0.0 2.7 71 2.1 WSW 32 48 17 26 1017.6 - 1.6
28/12:00am 7.7 0.5 3.0 72 2.0 WSW 30 44 16 24 1017.6 - 1.6
 
Date/Time
EST
Temp
°C
App
Temp
°C
Dew
Point
°C
Rel
Hum
%
Delta-T
°C
Wind Press
QNH
hPa
Press
MSL
hPa
Rain since
9am
mm
Dir  Spd
km/h
Gust
km/h
Spd
kts
Gust
kts
27/11:45pm 7.8 0.2 3.1 72 2.0 WSW 32 43 17 23 1017.6 - 1.6
27/11:30pm 7.9 0.8 3.3 73 2.0 WSW 30 44 16 24 1017.6 - 1.6
27/11:15pm 8.0 0.9 3.4 73 2.0 WSW 30 39 16 21 1017.6 - 1.6
27/11:00pm 8.4 1.7 3.5 71 2.1 WSW 28 39 15 21 1017.5 - 1.6
27/10:45pm 8.6 1.9 3.7 71 2.1 WSW 28 41 15 22 1017.4 - 1.6
27/10:30pm 8.6 1.9 3.8 72 2.1 WSW 28 41 15 22 1017.2 - 1.6
27/10:15pm 8.7 2.0 3.9 72 2.1 WSW 28 37 15 20 1017.0 - 1.6
27/10:00pm 8.6 2.3 4.0 73 2.0 WSW 26 33 14 18 1016.9 - 1.6
27/09:45pm 8.6 2.3 4.0 73 2.0 WSW 26 37 14 20 1016.8 - 1.6
27/09:30pm 8.6 2.4 4.1 73 2.0 WSW 26 37 14 20 1016.6 - 1.6
27/09:15pm 8.5 2.3 4.3 75 1.9 WSW 26 35 14 19 1016.6 - 1.6
27/09:00pm 8.5 2.3 4.4 75 1.8 WSW 26 33 14 18 1016.7 - 1.6
27/08:45pm 8.5 2.8 4.7 77 1.7 WSW 24 33 13 18 1016.6 - 1.6
27/08:30pm 8.4 2.7 5.0 79 1.5 WSW 24 33 13 18 1016.3 - 1.6
27/08:15pm 8.3 2.6 5.1 80 1.4 WSW 24 33 13 18 1016.1 - 1.6
27/08:00pm 8.4 2.8 5.3 81 1.4 WSW 24 30 13 16 1016.1 - 1.6
27/07:45pm 8.3 2.7 5.6 83 1.2 WSW 24 30 13 16 1016.0 - 1.6
27/07:30pm 8.2 3.4 5.7 84 1.1 WSW 20 26 11 14 1016.1 - 1.6
27/07:15pm 8.2 3.5 5.9 85 1.1 WSW 20 28 11 15 1015.9 - 1.6
27/07:00pm 8.2 3.1 6.0 86 1.0 WSW 22 26 12 14 1015.8 - 1.6
27/06:45pm 8.3 3.2 6.2 87 1.0 WSW 22 28 12 15 1015.7 - 1.6
27/06:30pm 8.4 3.8 6.5 88 0.9 WSW 20 24 11 13 1015.5 - 1.6
27/06:15pm 8.4 3.8 6.7 89 0.8 WSW 20 24 11 13 1015.3 - 1.6
27/06:00pm 8.5 4.2 6.8 89 0.8 WSW 19 22 10 12 1015.2 - 1.6
27/05:45pm 8.6 4.3 7.0 90 0.8 WSW 19 24 10 13 1015.0 - 1.4
27/05:30pm 8.7 4.4 7.2 90 0.7 WSW 19 24 10 13 1014.9 - 1.4
27/05:15pm 8.7 4.3 7.4 91 0.6 WSW 20 26 11 14 1014.8 - 1.4
27/05:00pm 8.7 4.9 7.4 91 0.6 SW 17 20 9 11 1014.6 - 1.4
27/04:45pm 8.7 5.6 7.3 91 0.7 SW 13 17 7 9 1014.5 - 1.4
27/04:30pm 8.9 5.8 7.2 89 0.8 WSW 13 17 7 9 1014.4 - 1.4
27/04:15pm 9.1 6.0 7.3 88 0.9 W 13 17 7 9 1014.2 - 1.3
27/04:00pm 9.3 6.6 7.3 87 1.0 SW 11 15 6 8 1014.0 - 1.3
27/03:45pm 9.4 6.3 7.2 86 1.0 SW 13 17 7 9 1014.0 - 1.3
27/03:30pm 9.5 6.0 7.0 84 1.2 SW 15 22 8 12 1013.9 - 1.3
27/03:15pm 9.7 6.5 6.8 82 1.4 SSW 13 19 7 10 1013.7 - 1.3
27/03:00pm 10.1 7.2 6.6 79 1.7 SW 11 15 6 8 1013.5 - 1.1
27/02:45pm 10.3 7.4 6.6 78 1.7 SSW 11 15 6 8 1013.3 - 1.1

Other Formats:

Comma delimited format used in spreadsheet applications
http://www.bom.gov.au/fwo/IDN60801/IDN60801.95757.axf

JavaScript Object Notation format (JSON) in row-major order
http://www.bom.gov.au/fwo/IDN60801/IDN60801.95757.json